createdAt,value
2022-12-18T01:00:41.095Z,64.2
2022-12-18T01:06:31.733Z,68.4
2022-12-18T01:12:22.284Z,66.3
2022-12-18T01:18:13.088Z,64.9
2022-12-18T01:24:03.922Z,63
2022-12-18T01:29:54.471Z,63.3
2022-12-18T01:35:44.825Z,64.5
2022-12-18T01:41:35.912Z,65.4
2022-12-18T01:47:26.633Z,66.7
2022-12-18T01:53:17.922Z,67.6
2022-12-18T01:59:08.824Z,65.3
2022-12-18T02:04:59.401Z,63.1
2022-12-18T02:10:50.402Z,64.2
2022-12-18T02:16:43.004Z,66.5
2022-12-18T02:22:34.215Z,66.9
2022-12-18T02:28:25.219Z,67.2
2022-12-18T02:34:16.331Z,65.7
2022-12-18T02:40:07.420Z,65.7
2022-12-18T02:45:58.455Z,69.2
2022-12-18T02:51:50.028Z,67.7
2022-12-18T02:57:40.822Z,71.2
2022-12-18T03:03:32.524Z,71.9
2022-12-18T03:09:23.687Z,68.4
2022-12-18T03:15:21.575Z,71.6
2022-12-18T03:21:11.921Z,69.4
2022-12-18T03:27:03.080Z,68.8
2022-12-18T03:33:00.188Z,66.2
2022-12-18T03:38:51.592Z,64.1
2022-12-18T03:44:42.470Z,68.5
2022-12-18T03:50:33.770Z,67
2022-12-18T03:56:25.490Z,65.6
2022-12-18T04:02:17.629Z,62.9
2022-12-18T04:08:09.320Z,64.6
2022-12-18T04:14:09.146Z,62.8
2022-12-18T04:20:10.363Z,61.3
2022-12-18T04:26:01.371Z,63.9
2022-12-18T04:31:51.865Z,64.7
2022-12-18T04:37:42.740Z,65.9
2022-12-18T04:43:33.284Z,65.1
2022-12-18T04:49:25.364Z,70.6
2022-12-18T04:55:16.218Z,70.7
2022-12-18T05:01:07.089Z,72.4
2022-12-18T05:06:59.026Z,69
2022-12-18T05:12:49.393Z,67.6
2022-12-18T05:18:40.299Z,68.9
2022-12-18T05:24:32.681Z,67.4
2022-12-18T05:30:23.683Z,70.7
2022-12-18T05:36:15.443Z,68.6
2022-12-18T05:42:06.936Z,70.8
2022-12-18T05:47:58.734Z,68.6
2022-12-18T05:53:49.366Z,68.8
2022-12-18T05:59:40.502Z,68.2
2022-12-18T06:05:31.079Z,71.5
2022-12-18T06:11:22.274Z,70.2
2022-12-18T06:17:13.475Z,68.7
2022-12-18T06:23:04.331Z,72.1
2022-12-18T06:28:54.806Z,68.4
2022-12-18T06:34:46.015Z,71.5
2022-12-18T06:40:35.979Z,71.8
2022-12-18T06:46:26.700Z,72.8
2022-12-18T06:52:17.578Z,71.9
2022-12-18T07:46:50.884Z,72.5
2022-12-18T08:14:11.143Z,74.7
2022-12-18T08:55:31.910Z,68.1
2022-12-18T10:29:09.024Z,64.5
2022-12-18T11:35:59.644Z,65.7
2022-12-18T11:42:23.746Z,66.8
2022-12-18T12:07:14.760Z,66.5
2022-12-18T12:13:54.021Z,65.6
2022-12-18T12:19:59.558Z,64.3
2022-12-18T12:26:37.995Z,62
2022-12-18T12:33:15.589Z,63.3
2022-12-18T12:53:12.973Z,67.9
2022-12-18T12:59:31.978Z,67.3
2022-12-18T13:19:20.960Z,68.8
2022-12-18T13:25:50.622Z,68.7
2022-12-18T14:20:55.255Z,74
2022-12-18T14:27:03.414Z,76.8
2022-12-18T14:32:59.174Z,74.3
2022-12-18T14:39:09.549Z,73
2022-12-18T14:45:24.444Z,85.7
2022-12-18T14:51:51.172Z,72.1
2022-12-18T14:58:14.295Z,72.3
2022-12-18T15:04:21.679Z,70.5
2022-12-18T15:10:18.029Z,75.9
2022-12-18T15:16:29.289Z,73.3
2022-12-18T15:22:58.093Z,75.9
2022-12-18T15:41:53.478Z,74.8
2022-12-18T15:48:02.982Z,80.6
2022-12-18T16:00:16.212Z,85.2
2022-12-18T16:06:14.223Z,82.1
2022-12-18T16:12:06.567Z,80.9
2022-12-18T16:18:35.220Z,83.2
2022-12-18T16:38:47.737Z,89.7
2022-12-18T16:45:05.173Z,87.9
2022-12-18T16:51:04.711Z,88
2022-12-18T16:56:53.044Z,90.1
2022-12-18T17:03:27.118Z,93.1
2022-12-18T17:09:35.121Z,94
2022-12-18T17:22:36.743Z,93
2022-12-18T17:40:53.230Z,96.4
2022-12-18T19:13:07.254Z,95.4
2022-12-18T19:19:13.802Z,94.4
2022-12-18T19:25:21.028Z,97.3
2022-12-18T19:38:03.710Z,98.6
2022-12-18T20:03:32.263Z,102
2022-12-18T20:09:44.190Z,103.3
2022-12-18T20:15:48.871Z,101.1
2022-12-18T20:28:51.489Z,97.5
2022-12-18T20:35:29.719Z,91.4
2022-12-18T21:00:39.498Z,97.1
2022-12-18T22:08:45.989Z,99.9
2022-12-18T22:21:59.089Z,102.3
2022-12-18T22:28:32.989Z,104.6
2022-12-18T22:35:23.676Z,104.7
2022-12-18T22:54:28.211Z,97.2
2022-12-18T23:00:27.565Z,101.4
2022-12-18T23:06:51.531Z,99.2
2022-12-18T23:32:07.808Z,94.8
2022-12-18T23:45:29.916Z,102
2022-12-18T23:51:45.477Z,102.2
2022-12-18T23:58:10.117Z,105.3
